sensor_id;sensor_type;location;lat;lon;timestamp;P1;durP1;ratioP1;P2;durP2;ratioP2
62709;SDS011;48770;51.624;5.886;2023-05-07T00:00:07;0.30;;;0.20;;
62709;SDS011;48770;51.624;5.886;2023-05-07T00:02:33;0.95;;;0.10;;
62709;SDS011;48770;51.624;5.886;2023-05-07T00:04:59;0.10;;;0.10;;
62709;SDS011;48770;51.624;5.886;2023-05-07T00:07:24;0.20;;;0.10;;
62709;SDS011;48770;51.624;5.886;2023-05-07T00:09:50;0.60;;;0.28;;
62709;SDS011;48770;51.624;5.886;2023-05-07T00:12:15;0.40;;;0.17;;
62709;SDS011;48770;51.624;5.886;2023-05-07T00:14:41;0.20;;;0.20;;
62709;SDS011;48770;51.624;5.886;2023-05-07T00:17:06;0.43;;;0.30;;
62709;SDS011;48770;51.624;5.886;2023-05-07T00:19:32;0.22;;;0.10;;
62709;SDS011;48770;51.624;5.886;2023-05-07T00:21:57;0.85;;;0.10;;
62709;SDS011;48770;51.624;5.886;2023-05-07T00:24:23;0.22;;;0.17;;
62709;SDS011;48770;51.624;5.886;2023-05-07T00:26:49;0.50;;;0.30;;
62709;SDS011;48770;51.624;5.886;2023-05-07T00:29:14;0.20;;;0.10;;
62709;SDS011;48770;51.624;5.886;2023-05-07T00:31:39;1.13;;;0.50;;
62709;SDS011;48770;51.624;5.886;2023-05-07T00:34:05;0.90;;;0.20;;
62709;SDS011;48770;51.624;5.886;2023-05-07T00:36:31;0.20;;;0.10;;
62709;SDS011;48770;51.624;5.886;2023-05-07T00:38:56;0.30;;;0.20;;
62709;SDS011;48770;51.624;5.886;2023-05-07T00:41:23;0.60;;;0.30;;
62709;SDS011;48770;51.624;5.886;2023-05-07T00:43:49;0.45;;;0.10;;
62709;SDS011;48770;51.624;5.886;2023-05-07T00:46:16;0.70;;;0.15;;
62709;SDS011;48770;51.624;5.886;2023-05-07T00:48:42;0.10;;;0.10;;
62709;SDS011;48770;51.624;5.886;2023-05-07T00:51:07;0.10;;;0.08;;
62709;SDS011;48770;51.624;5.886;2023-05-07T00:53:36;0.28;;;0.20;;
62709;SDS011;48770;51.624;5.886;2023-05-07T00:56:01;0.32;;;0.10;;
62709;SDS011;48770;51.624;5.886;2023-05-07T00:58:27;0.60;;;0.10;;
62709;SDS011;48770;51.624;5.886;2023-05-07T01:00:52;0.10;;;0.10;;
62709;SDS011;48770;51.624;5.886;2023-05-07T01:03:18;0.30;;;0.15;;
62709;SDS011;48770;51.624;5.886;2023-05-07T01:05:43;0.20;;;0.10;;
62709;SDS011;48770;51.624;5.886;2023-05-07T01:08:10;0.73;;;0.10;;
62709;SDS011;48770;51.624;5.886;2023-05-07T01:10:36;0.30;;;0.22;;
62709;SDS011;48770;51.624;5.886;2023-05-07T01:13:01;0.10;;;0.10;;
62709;SDS011;48770;51.624;5.886;2023-05-07T01:15:27;0.60;;;0.35;;
62709;SDS011;48770;51.624;5.886;2023-05-07T01:17:53;1.00;;;0.20;;
62709;SDS011;48770;51.624;5.886;2023-05-07T01:20:18;0.98;;;0.10;;
62709;SDS011;48770;51.624;5.886;2023-05-07T01:22:44;0.38;;;0.13;;
62709;SDS011;48770;51.624;5.886;2023-05-07T01:25:10;0.45;;;0.20;;
62709;SDS011;48770;51.624;5.886;2023-05-07T01:27:36;0.35;;;0.20;;
62709;SDS011;48770;51.624;5.886;2023-05-07T01:30:05;0.20;;;0.20;;
62709;SDS011;48770;51.624;5.886;2023-05-07T01:32:43;0.20;;;0.10;;
62709;SDS011;48770;51.624;5.886;2023-05-07T01:35:18;0.43;;;0.20;;
62709;SDS011;48770;51.624;5.886;2023-05-07T01:37:46;0.85;;;0.15;;
62709;SDS011;48770;51.624;5.886;2023-05-07T01:40:12;0.20;;;0.20;;
62709;SDS011;48770;51.624;5.886;2023-05-07T01:42:38;2.75;;;0.30;;
62709;SDS011;48770;51.624;5.886;2023-05-07T01:45:04;0.57;;;0.20;;
62709;SDS011;48770;51.624;5.886;2023-05-07T01:47:30;0.60;;;0.20;;
62709;SDS011;48770;51.624;5.886;2023-05-07T01:49:56;0.17;;;0.10;;
62709;SDS011;48770;51.624;5.886;2023-05-07T01:52:23;0.60;;;0.22;;
62709;SDS011;48770;51.624;5.886;2023-05-07T01:54:49;0.40;;;0.20;;
62709;SDS011;48770;51.624;5.886;2023-05-07T01:57:15;0.20;;;0.10;;
62709;SDS011;48770;51.624;5.886;2023-05-07T01:59:40;0.30;;;0.22;;
62709;SDS011;48770;51.624;5.886;2023-05-07T02:02:05;1.13;;;0.40;;
62709;SDS011;48770;51.624;5.886;2023-05-07T02:04:31;0.10;;;0.10;;
62709;SDS011;48770;51.624;5.886;2023-05-07T02:06:56;0.28;;;0.20;;
62709;SDS011;48770;51.624;5.886;2023-05-07T02:09:21;0.63;;;0.40;;
62709;SDS011;48770;51.624;5.886;2023-05-07T02:11:47;0.22;;;0.20;;
62709;SDS011;48770;51.624;5.886;2023-05-07T02:14:13;0.28;;;0.10;;
62709;SDS011;48770;51.624;5.886;2023-05-07T02:16:38;0.20;;;0.13;;
62709;SDS011;48770;51.624;5.886;2023-05-07T02:19:03;0.22;;;0.20;;
62709;SDS011;48770;51.624;5.886;2023-05-07T02:21:29;0.40;;;0.20;;
62709;SDS011;48770;51.624;5.886;2023-05-07T02:23:54;0.43;;;0.30;;
62709;SDS011;48770;51.624;5.886;2023-05-07T02:26:20;0.63;;;0.15;;
62709;SDS011;48770;51.624;5.886;2023-05-07T02:28:46;0.30;;;0.20;;
62709;SDS011;48770;51.624;5.886;2023-05-07T02:31:12;0.13;;;0.10;;
62709;SDS011;48770;51.624;5.886;2023-05-07T02:33:37;0.15;;;0.10;;
62709;SDS011;48770;51.624;5.886;2023-05-07T02:36:09;0.40;;;0.20;;
62709;SDS011;48770;51.624;5.886;2023-05-07T02:38:35;0.60;;;0.20;;
62709;SDS011;48770;51.624;5.886;2023-05-07T02:41:01;0.20;;;0.13;;
62709;SDS011;48770;51.624;5.886;2023-05-07T02:43:26;0.40;;;0.20;;
62709;SDS011;48770;51.624;5.886;2023-05-07T02:46:01;0.55;;;0.20;;
62709;SDS011;48770;51.624;5.886;2023-05-07T02:48:30;0.30;;;0.20;;
62709;SDS011;48770;51.624;5.886;2023-05-07T02:50:56;0.15;;;0.10;;
62709;SDS011;48770;51.624;5.886;2023-05-07T02:53:22;0.20;;;0.20;;
62709;SDS011;48770;51.624;5.886;2023-05-07T02:55:47;0.40;;;0.15;;
62709;SDS011;48770;51.624;5.886;2023-05-07T02:58:13;0.40;;;0.20;;
62709;SDS011;48770;51.624;5.886;2023-05-07T03:00:38;0.57;;;0.20;;
62709;SDS011;48770;51.624;5.886;2023-05-07T03:03:03;0.47;;;0.17;;
62709;SDS011;48770;51.624;5.886;2023-05-07T03:05:28;0.17;;;0.15;;
62709;SDS011;48770;51.624;5.886;2023-05-07T03:07:54;0.57;;;0.20;;
62709;SDS011;48770;51.624;5.886;2023-05-07T03:10:19;0.20;;;0.20;;
62709;SDS011;48770;51.624;5.886;2023-05-07T03:12:44;0.20;;;0.20;;
62709;SDS011;48770;51.624;5.886;2023-05-07T03:15:10;0.20;;;0.08;;
62709;SDS011;48770;51.624;5.886;2023-05-07T03:17:37;0.20;;;0.20;;
62709;SDS011;48770;51.624;5.886;2023-05-07T03:20:03;0.22;;;0.20;;
62709;SDS011;48770;51.624;5.886;2023-05-07T03:22:28;0.30;;;0.20;;
62709;SDS011;48770;51.624;5.886;2023-05-07T03:24:54;0.22;;;0.10;;
62709;SDS011;48770;51.624;5.886;2023-05-07T03:27:19;0.20;;;0.10;;
62709;SDS011;48770;51.624;5.886;2023-05-07T03:29:44;0.20;;;0.20;;
62709;SDS011;48770;51.624;5.886;2023-05-07T03:32:10;0.70;;;0.13;;
62709;SDS011;48770;51.624;5.886;2023-05-07T03:34:35;0.20;;;0.20;;
62709;SDS011;48770;51.624;5.886;2023-05-07T03:37:01;0.13;;;0.13;;
62709;SDS011;48770;51.624;5.886;2023-05-07T03:39:26;0.20;;;0.10;;
62709;SDS011;48770;51.624;5.886;2023-05-07T03:41:51;0.50;;;0.20;;
62709;SDS011;48770;51.624;5.886;2023-05-07T03:44:17;0.20;;;0.20;;
62709;SDS011;48770;51.624;5.886;2023-05-07T03:46:42;0.20;;;0.20;;
62709;SDS011;48770;51.624;5.886;2023-05-07T03:49:08;0.30;;;0.20;;
62709;SDS011;48770;51.624;5.886;2023-05-07T03:51:33;0.20;;;0.10;;
62709;SDS011;48770;51.624;5.886;2023-05-07T03:53:58;0.20;;;0.10;;
62709;SDS011;48770;51.624;5.886;2023-05-07T03:56:24;0.10;;;0.10;;
62709;SDS011;48770;51.624;5.886;2023-05-07T03:58:51;0.30;;;0.20;;
62709;SDS011;48770;51.624;5.886;2023-05-07T04:01:17;0.50;;;0.32;;
62709;SDS011;48770;51.624;5.886;2023-05-07T04:03:42;0.35;;;0.20;;
62709;SDS011;48770;51.624;5.886;2023-05-07T04:06:07;0.20;;;0.20;;
62709;SDS011;48770;51.624;5.886;2023-05-07T04:08:33;0.10;;;0.10;;
62709;SDS011;48770;51.624;5.886;2023-05-07T04:10:58;0.95;;;0.22;;
62709;SDS011;48770;51.624;5.886;2023-05-07T04:13:24;0.13;;;0.10;;
62709;SDS011;48770;51.624;5.886;2023-05-07T04:15:51;0.30;;;0.20;;
62709;SDS011;48770;51.624;5.886;2023-05-07T04:18:17;0.30;;;0.20;;
62709;SDS011;48770;51.624;5.886;2023-05-07T04:20:42;0.10;;;0.10;;
62709;SDS011;48770;51.624;5.886;2023-05-07T04:23:07;0.20;;;0.10;;
62709;SDS011;48770;51.624;5.886;2023-05-07T04:25:33;0.38;;;0.20;;
62709;SDS011;48770;51.624;5.886;2023-05-07T04:27:59;0.10;;;0.10;;
62709;SDS011;48770;51.624;5.886;2023-05-07T04:30:24;1.00;;;0.38;;
62709;SDS011;48770;51.624;5.886;2023-05-07T04:32:50;0.32;;;0.20;;
62709;SDS011;48770;51.624;5.886;2023-05-07T04:35:15;0.20;;;0.15;;
62709;SDS011;48770;51.624;5.886;2023-05-07T04:37:41;0.30;;;0.20;;
62709;SDS011;48770;51.624;5.886;2023-05-07T04:40:06;0.20;;;0.20;;
62709;SDS011;48770;51.624;5.886;2023-05-07T04:42:32;0.47;;;0.28;;
62709;SDS011;48770;51.624;5.886;2023-05-07T04:44:57;0.20;;;0.10;;
62709;SDS011;48770;51.624;5.886;2023-05-07T04:47:23;0.25;;;0.17;;
62709;SDS011;48770;51.624;5.886;2023-05-07T04:49:48;0.20;;;0.15;;
62709;SDS011;48770;51.624;5.886;2023-05-07T04:52:13;0.13;;;0.13;;
62709;SDS011;48770;51.624;5.886;2023-05-07T04:54:39;0.20;;;0.13;;
62709;SDS011;48770;51.624;5.886;2023-05-07T04:57:04;0.40;;;0.20;;
62709;SDS011;48770;51.624;5.886;2023-05-07T04:59:29;0.28;;;0.10;;
62709;SDS011;48770;51.624;5.886;2023-05-07T05:01:55;0.25;;;0.10;;
62709;SDS011;48770;51.624;5.886;2023-05-07T05:04:20;0.10;;;0.10;;
62709;SDS011;48770;51.624;5.886;2023-05-07T05:06:46;0.10;;;0.10;;
62709;SDS011;48770;51.624;5.886;2023-05-07T05:09:11;0.20;;;0.10;;
62709;SDS011;48770;51.624;5.886;2023-05-07T05:11:36;0.30;;;0.20;;
62709;SDS011;48770;51.624;5.886;2023-05-07T05:14:02;0.13;;;0.13;;
62709;SDS011;48770;51.624;5.886;2023-05-07T05:16:27;0.20;;;0.10;;
62709;SDS011;48770;51.624;5.886;2023-05-07T05:18:52;0.20;;;0.10;;
62709;SDS011;48770;51.624;5.886;2023-05-07T05:21:19;0.40;;;0.20;;
62709;SDS011;48770;51.624;5.886;2023-05-07T05:23:45;0.25;;;0.25;;
62709;SDS011;48770;51.624;5.886;2023-05-07T05:26:10;0.73;;;0.15;;
62709;SDS011;48770;51.624;5.886;2023-05-07T05:28:36;0.47;;;0.30;;
62709;SDS011;48770;51.624;5.886;2023-05-07T05:31:01;0.10;;;0.10;;
62709;SDS011;48770;51.624;5.886;2023-05-07T05:33:27;0.28;;;0.20;;
62709;SDS011;48770;51.624;5.886;2023-05-07T05:35:53;0.17;;;0.10;;
62709;SDS011;48770;51.624;5.886;2023-05-07T05:38:19;0.40;;;0.20;;
62709;SDS011;48770;51.624;5.886;2023-05-07T05:40:45;0.20;;;0.20;;
62709;SDS011;48770;51.624;5.886;2023-05-07T05:43:11;0.20;;;0.10;;
62709;SDS011;48770;51.624;5.886;2023-05-07T05:45:36;0.43;;;0.20;;
62709;SDS011;48770;51.624;5.886;2023-05-07T05:48:02;0.10;;;0.08;;
62709;SDS011;48770;51.624;5.886;2023-05-07T05:50:27;0.30;;;0.20;;
62709;SDS011;48770;51.624;5.886;2023-05-07T05:52:52;0.35;;;0.20;;
62709;SDS011;48770;51.624;5.886;2023-05-07T05:55:18;0.20;;;0.10;;
62709;SDS011;48770;51.624;5.886;2023-05-07T05:57:43;0.30;;;0.10;;
62709;SDS011;48770;51.624;5.886;2023-05-07T06:00:09;0.47;;;0.10;;
62709;SDS011;48770;51.624;5.886;2023-05-07T06:02:34;0.17;;;0.17;;
62709;SDS011;48770;51.624;5.886;2023-05-07T06:05:00;0.32;;;0.10;;
62709;SDS011;48770;51.624;5.886;2023-05-07T06:07:25;0.25;;;0.15;;
62709;SDS011;48770;51.624;5.886;2023-05-07T06:09:50;0.25;;;0.17;;
62709;SDS011;48770;51.624;5.886;2023-05-07T06:12:16;0.30;;;0.20;;
62709;SDS011;48770;51.624;5.886;2023-05-07T06:14:42;0.32;;;0.22;;
62709;SDS011;48770;51.624;5.886;2023-05-07T06:17:08;0.10;;;0.10;;
62709;SDS011;48770;51.624;5.886;2023-05-07T06:19:34;0.55;;;0.20;;
62709;SDS011;48770;51.624;5.886;2023-05-07T06:21:59;0.38;;;0.20;;
62709;SDS011;48770;51.624;5.886;2023-05-07T06:24:26;0.20;;;0.15;;
62709;SDS011;48770;51.624;5.886;2023-05-07T06:26:52;0.10;;;0.10;;
62709;SDS011;48770;51.624;5.886;2023-05-07T06:29:17;0.20;;;0.10;;
62709;SDS011;48770;51.624;5.886;2023-05-07T06:31:43;0.40;;;0.10;;
62709;SDS011;48770;51.624;5.886;2023-05-07T06:34:08;0.10;;;0.00;;
62709;SDS011;48770;51.624;5.886;2023-05-07T06:36:33;0.45;;;0.28;;
62709;SDS011;48770;51.624;5.886;2023-05-07T06:38:59;0.10;;;0.10;;
62709;SDS011;48770;51.624;5.886;2023-05-07T06:41:24;0.20;;;0.10;;
62709;SDS011;48770;51.624;5.886;2023-05-07T06:43:50;0.20;;;0.17;;
62709;SDS011;48770;51.624;5.886;2023-05-07T06:46:16;0.20;;;0.17;;
62709;SDS011;48770;51.624;5.886;2023-05-07T06:48:41;0.20;;;0.17;;
62709;SDS011;48770;51.624;5.886;2023-05-07T06:51:06;0.40;;;0.20;;
62709;SDS011;48770;51.624;5.886;2023-05-07T06:53:32;0.10;;;0.10;;
62709;SDS011;48770;51.624;5.886;2023-05-07T06:55:57;0.10;;;0.10;;
62709;SDS011;48770;51.624;5.886;2023-05-07T06:58:23;0.30;;;0.20;;
62709;SDS011;48770;51.624;5.886;2023-05-07T07:00:48;0.10;;;0.10;;
62709;SDS011;48770;51.624;5.886;2023-05-07T07:03:13;0.13;;;0.10;;
62709;SDS011;48770;51.624;5.886;2023-05-07T07:05:42;0.15;;;0.10;;
62709;SDS011;48770;51.624;5.886;2023-05-07T07:08:07;0.22;;;0.15;;
62709;SDS011;48770;51.624;5.886;2023-05-07T07:10:33;0.85;;;0.10;;
62709;SDS011;48770;51.624;5.886;2023-05-07T07:12:58;0.22;;;0.10;;
62709;SDS011;48770;51.624;5.886;2023-05-07T07:15:24;0.22;;;0.10;;
62709;SDS011;48770;51.624;5.886;2023-05-07T07:17:51;0.68;;;0.10;;
62709;SDS011;48770;51.624;5.886;2023-05-07T07:20:16;0.37;;;0.20;;
62709;SDS011;48770;51.624;5.886;2023-05-07T07:22:41;0.20;;;0.10;;
62709;SDS011;48770;51.624;5.886;2023-05-07T07:25:07;0.10;;;0.10;;
62709;SDS011;48770;51.624;5.886;2023-05-07T07:27:33;0.20;;;0.10;;
62709;SDS011;48770;51.624;5.886;2023-05-07T07:29:58;0.32;;;0.20;;
62709;SDS011;48770;51.624;5.886;2023-05-07T07:32:23;0.10;;;0.10;;
62709;SDS011;48770;51.624;5.886;2023-05-07T07:34:48;0.50;;;0.10;;
62709;SDS011;48770;51.624;5.886;2023-05-07T07:37:14;0.20;;;0.10;;
62709;SDS011;48770;51.624;5.886;2023-05-07T07:39:39;0.33;;;0.20;;
62709;SDS011;48770;51.624;5.886;2023-05-07T07:42:04;1.35;;;1.00;;
62709;SDS011;48770;51.624;5.886;2023-05-07T07:44:30;3.05;;;1.15;;
62709;SDS011;48770;51.624;5.886;2023-05-07T07:46:55;1.02;;;0.70;;
62709;SDS011;48770;51.624;5.886;2023-05-07T07:49:21;1.38;;;0.50;;
62709;SDS011;48770;51.624;5.886;2023-05-07T07:51:46;0.30;;;0.20;;
62709;SDS011;48770;51.624;5.886;2023-05-07T07:54:11;0.73;;;0.43;;
62709;SDS011;48770;51.624;5.886;2023-05-07T07:56:37;0.80;;;0.30;;
62709;SDS011;48770;51.624;5.886;2023-05-07T07:59:02;1.02;;;0.50;;
62709;SDS011;48770;51.624;5.886;2023-05-07T08:01:29;1.08;;;0.30;;
62709;SDS011;48770;51.624;5.886;2023-05-07T08:03:55;0.63;;;0.30;;
62709;SDS011;48770;51.624;5.886;2023-05-07T08:06:22;1.88;;;0.38;;
62709;SDS011;48770;51.624;5.886;2023-05-07T08:08:48;0.57;;;0.32;;
62709;SDS011;48770;51.624;5.886;2023-05-07T08:11:13;1.55;;;0.30;;
62709;SDS011;48770;51.624;5.886;2023-05-07T08:13:39;0.98;;;0.40;;
62709;SDS011;48770;51.624;5.886;2023-05-07T08:16:05;0.77;;;0.38;;
62709;SDS011;48770;51.624;5.886;2023-05-07T08:18:30;0.43;;;0.30;;
62709;SDS011;48770;51.624;5.886;2023-05-07T08:20:55;0.65;;;0.30;;
62709;SDS011;48770;51.624;5.886;2023-05-07T08:23:21;0.73;;;0.40;;
62709;SDS011;48770;51.624;5.886;2023-05-07T08:25:47;0.50;;;0.38;;
62709;SDS011;48770;51.624;5.886;2023-05-07T08:28:13;1.10;;;0.40;;
62709;SDS011;48770;51.624;5.886;2023-05-07T08:30:38;1.02;;;0.50;;
62709;SDS011;48770;51.624;5.886;2023-05-07T08:33:03;1.52;;;0.43;;
62709;SDS011;48770;51.624;5.886;2023-05-07T08:35:28;1.10;;;0.50;;
62709;SDS011;48770;51.624;5.886;2023-05-07T08:37:54;3.13;;;1.13;;
62709;SDS011;48770;51.624;5.886;2023-05-07T08:40:20;0.40;;;0.40;;
62709;SDS011;48770;51.624;5.886;2023-05-07T08:42:49;1.13;;;0.70;;
62709;SDS011;48770;51.624;5.886;2023-05-07T08:45:17;0.80;;;0.73;;
62709;SDS011;48770;51.624;5.886;2023-05-07T08:47:46;0.85;;;0.52;;
62709;SDS011;48770;51.624;5.886;2023-05-07T08:50:14;1.65;;;0.68;;
62709;SDS011;48770;51.624;5.886;2023-05-07T08:52:40;1.65;;;0.75;;
62709;SDS011;48770;51.624;5.886;2023-05-07T08:55:06;0.80;;;0.68;;
62709;SDS011;48770;51.624;5.886;2023-05-07T08:57:32;1.00;;;0.50;;
62709;SDS011;48770;51.624;5.886;2023-05-07T08:59:57;1.17;;;0.60;;
62709;SDS011;48770;51.624;5.886;2023-05-07T09:02:23;0.65;;;0.47;;
62709;SDS011;48770;51.624;5.886;2023-05-07T09:04:48;1.00;;;0.80;;
62709;SDS011;48770;51.624;5.886;2023-05-07T09:07:14;0.60;;;0.60;;
62709;SDS011;48770;51.624;5.886;2023-05-07T09:09:39;0.43;;;0.40;;
62709;SDS011;48770;51.624;5.886;2023-05-07T09:12:04;0.50;;;0.40;;
62709;SDS011;48770;51.624;5.886;2023-05-07T09:14:30;1.60;;;0.77;;
62709;SDS011;48770;51.624;5.886;2023-05-07T09:16:56;0.65;;;0.65;;
62709;SDS011;48770;51.624;5.886;2023-05-07T09:19:22;0.65;;;0.32;;
62709;SDS011;48770;51.624;5.886;2023-05-07T09:21:48;0.80;;;0.30;;
62709;SDS011;48770;51.624;5.886;2023-05-07T09:24:15;1.45;;;0.85;;
62709;SDS011;48770;51.624;5.886;2023-05-07T09:26:40;1.23;;;0.70;;
62709;SDS011;48770;51.624;5.886;2023-05-07T09:29:07;0.95;;;0.50;;
62709;SDS011;48770;51.624;5.886;2023-05-07T09:31:35;0.70;;;0.35;;
62709;SDS011;48770;51.624;5.886;2023-05-07T09:34:01;0.90;;;0.60;;
62709;SDS011;48770;51.624;5.886;2023-05-07T09:36:27;1.40;;;0.93;;
62709;SDS011;48770;51.624;5.886;2023-05-07T09:38:52;0.90;;;0.73;;
62709;SDS011;48770;51.624;5.886;2023-05-07T09:41:17;2.25;;;1.00;;
62709;SDS011;48770;51.624;5.886;2023-05-07T09:43:44;0.85;;;0.50;;
62709;SDS011;48770;51.624;5.886;2023-05-07T09:46:13;0.73;;;0.65;;
62709;SDS011;48770;51.624;5.886;2023-05-07T09:48:40;1.15;;;0.32;;
62709;SDS011;48770;51.624;5.886;2023-05-07T09:51:24;0.73;;;0.45;;
62709;SDS011;48770;51.624;5.886;2023-05-07T09:53:53;0.65;;;0.20;;
62709;SDS011;48770;51.624;5.886;2023-05-07T09:56:19;0.47;;;0.40;;
62709;SDS011;48770;51.624;5.886;2023-05-07T09:58:45;0.68;;;0.40;;
62709;SDS011;48770;51.624;5.886;2023-05-07T10:01:11;1.10;;;0.60;;
62709;SDS011;48770;51.624;5.886;2023-05-07T10:03:38;0.90;;;0.43;;
62709;SDS011;48770;51.624;5.886;2023-05-07T10:06:05;0.95;;;0.40;;
62709;SDS011;48770;51.624;5.886;2023-05-07T10:08:33;0.95;;;0.57;;
62709;SDS011;48770;51.624;5.886;2023-05-07T10:11:00;0.43;;;0.40;;
62709;SDS011;48770;51.624;5.886;2023-05-07T10:13:26;0.20;;;0.20;;
62709;SDS011;48770;51.624;5.886;2023-05-07T10:15:52;0.70;;;0.40;;
62709;SDS011;48770;51.624;5.886;2023-05-07T10:18:18;0.45;;;0.30;;
62709;SDS011;48770;51.624;5.886;2023-05-07T10:20:47;0.35;;;0.30;;
62709;SDS011;48770;51.624;5.886;2023-05-07T10:23:14;0.40;;;0.38;;
62709;SDS011;48770;51.624;5.886;2023-05-07T10:25:47;0.65;;;0.30;;
62709;SDS011;48770;51.624;5.886;2023-05-07T10:28:13;0.50;;;0.38;;
62709;SDS011;48770;51.624;5.886;2023-05-07T10:33:36;0.60;;;0.32;;
62709;SDS011;48770;51.624;5.886;2023-05-07T10:36:04;4.05;;;2.60;;
62709;SDS011;48770;51.624;5.886;2023-05-07T10:38:31;3.38;;;2.58;;
62709;SDS011;48770;51.624;5.886;2023-05-07T10:40:57;3.70;;;2.85;;
62709;SDS011;48770;51.624;5.886;2023-05-07T10:43:23;5.07;;;3.25;;
62709;SDS011;48770;51.624;5.886;2023-05-07T10:51:31;5.65;;;3.35;;
62709;SDS011;48770;51.624;5.886;2023-05-07T10:56:42;4.47;;;3.03;;
62709;SDS011;48770;51.624;5.886;2023-05-07T11:02:03;4.53;;;3.30;;
62709;SDS011;48770;51.624;5.886;2023-05-07T11:04:31;3.88;;;3.15;;
62709;SDS011;48770;51.624;5.886;2023-05-07T11:17:32;3.15;;;2.25;;
62709;SDS011;48770;51.624;5.886;2023-05-07T11:19:59;4.50;;;2.50;;
62709;SDS011;48770;51.624;5.886;2023-05-07T11:25:05;4.30;;;2.33;;
62709;SDS011;48770;51.624;5.886;2023-05-07T11:27:31;3.45;;;2.10;;
62709;SDS011;48770;51.624;5.886;2023-05-07T11:29:57;4.80;;;2.58;;
62709;SDS011;48770;51.624;5.886;2023-05-07T11:32:32;7.60;;;2.33;;
62709;SDS011;48770;51.624;5.886;2023-05-07T11:34:58;3.20;;;2.05;;
62709;SDS011;48770;51.624;5.886;2023-05-07T11:37:25;2.67;;;2.00;;
62709;SDS011;48770;51.624;5.886;2023-05-07T11:39:52;4.65;;;2.47;;
62709;SDS011;48770;51.624;5.886;2023-05-07T11:42:29;3.67;;;2.35;;
62709;SDS011;48770;51.624;5.886;2023-05-07T11:44:55;4.53;;;2.40;;
62709;SDS011;48770;51.624;5.886;2023-05-07T11:47:21;4.15;;;2.38;;
62709;SDS011;48770;51.624;5.886;2023-05-07T11:49:51;4.80;;;2.40;;
62709;SDS011;48770;51.624;5.886;2023-05-07T11:52:18;4.53;;;2.63;;
62709;SDS011;48770;51.624;5.886;2023-05-07T11:54:49;3.75;;;2.25;;
62709;SDS011;48770;51.624;5.886;2023-05-07T11:57:15;4.50;;;2.60;;
62709;SDS011;48770;51.624;5.886;2023-05-07T11:59:40;7.25;;;3.00;;
62709;SDS011;48770;51.624;5.886;2023-05-07T12:02:06;5.53;;;2.40;;
62709;SDS011;48770;51.624;5.886;2023-05-07T12:04:32;5.63;;;3.20;;
62709;SDS011;48770;51.624;5.886;2023-05-07T12:06:58;5.53;;;2.80;;
62709;SDS011;48770;51.624;5.886;2023-05-07T12:09:23;5.45;;;2.40;;
62709;SDS011;48770;51.624;5.886;2023-05-07T12:11:48;4.35;;;2.38;;
62709;SDS011;48770;51.624;5.886;2023-05-07T12:14:16;4.50;;;2.00;;
62709;SDS011;48770;51.624;5.886;2023-05-07T12:16:41;4.97;;;2.58;;
62709;SDS011;48770;51.624;5.886;2023-05-07T12:19:08;2.78;;;2.05;;
62709;SDS011;48770;51.624;5.886;2023-05-07T12:21:37;5.55;;;2.10;;
62709;SDS011;48770;51.624;5.886;2023-05-07T12:24:03;3.03;;;2.20;;
62709;SDS011;48770;51.624;5.886;2023-05-07T12:26:29;4.15;;;2.10;;
62709;SDS011;48770;51.624;5.886;2023-05-07T12:28:55;2.47;;;1.63;;
62709;SDS011;48770;51.624;5.886;2023-05-07T12:31:22;4.97;;;2.25;;
62709;SDS011;48770;51.624;5.886;2023-05-07T12:33:48;3.05;;;2.10;;
62709;SDS011;48770;51.624;5.886;2023-05-07T12:36:13;6.63;;;1.90;;
62709;SDS011;48770;51.624;5.886;2023-05-07T12:38:39;3.40;;;2.17;;
62709;SDS011;48770;51.624;5.886;2023-05-07T12:41:06;2.92;;;1.90;;
62709;SDS011;48770;51.624;5.886;2023-05-07T12:43:33;7.15;;;1.83;;
62709;SDS011;48770;51.624;5.886;2023-05-07T12:46:00;2.78;;;1.60;;
62709;SDS011;48770;51.624;5.886;2023-05-07T12:48:26;2.67;;;1.90;;
62709;SDS011;48770;51.624;5.886;2023-05-07T12:51:01;3.58;;;1.95;;
62709;SDS011;48770;51.624;5.886;2023-05-07T12:53:27;2.83;;;2.03;;
62709;SDS011;48770;51.624;5.886;2023-05-07T12:55:58;3.40;;;1.92;;
62709;SDS011;48770;51.624;5.886;2023-05-07T12:58:28;3.25;;;2.15;;
62709;SDS011;48770;51.624;5.886;2023-05-07T13:00:56;3.38;;;1.85;;
62709;SDS011;48770;51.624;5.886;2023-05-07T13:03:29;3.08;;;1.63;;
62709;SDS011;48770;51.624;5.886;2023-05-07T13:06:04;2.40;;;1.75;;
62709;SDS011;48770;51.624;5.886;2023-05-07T13:08:35;3.33;;;1.42;;
62709;SDS011;48770;51.624;5.886;2023-05-07T13:11:02;4.28;;;1.70;;
62709;SDS011;48770;51.624;5.886;2023-05-07T13:13:32;6.05;;;1.70;;
62709;SDS011;48770;51.624;5.886;2023-05-07T13:15:58;3.83;;;1.60;;
62709;SDS011;48770;51.624;5.886;2023-05-07T13:18:26;2.20;;;1.85;;
62709;SDS011;48770;51.624;5.886;2023-05-07T13:20:53;2.22;;;1.25;;
62709;SDS011;48770;51.624;5.886;2023-05-07T13:23:18;4.43;;;1.50;;
62709;SDS011;48770;51.624;5.886;2023-05-07T13:25:44;3.15;;;1.38;;
62709;SDS011;48770;51.624;5.886;2023-05-07T13:28:09;4.00;;;1.60;;
62709;SDS011;48770;51.624;5.886;2023-05-07T13:30:35;2.35;;;1.23;;
62709;SDS011;48770;51.624;5.886;2023-05-07T13:33:00;3.63;;;1.80;;
62709;SDS011;48770;51.624;5.886;2023-05-07T13:35:26;2.17;;;1.20;;
62709;SDS011;48770;51.624;5.886;2023-05-07T13:37:51;3.05;;;1.33;;
62709;SDS011;48770;51.624;5.886;2023-05-07T13:40:17;2.63;;;1.20;;
62709;SDS011;48770;51.624;5.886;2023-05-07T13:42:43;4.05;;;1.40;;
62709;SDS011;48770;51.624;5.886;2023-05-07T13:45:09;2.03;;;1.48;;
62709;SDS011;48770;51.624;5.886;2023-05-07T13:47:34;3.63;;;1.20;;
62709;SDS011;48770;51.624;5.886;2023-05-07T13:50:00;1.98;;;1.27;;
62709;SDS011;48770;51.624;5.886;2023-05-07T13:52:25;2.88;;;1.10;;
62709;SDS011;48770;51.624;5.886;2023-05-07T13:54:51;4.00;;;1.33;;
62709;SDS011;48770;51.624;5.886;2023-05-07T13:57:17;3.50;;;1.90;;
62709;SDS011;48770;51.624;5.886;2023-05-07T13:59:43;2.15;;;1.40;;
62709;SDS011;48770;51.624;5.886;2023-05-07T14:02:08;1.92;;;1.30;;
62709;SDS011;48770;51.624;5.886;2023-05-07T14:04:34;2.05;;;1.42;;
62709;SDS011;48770;51.624;5.886;2023-05-07T14:06:59;3.55;;;1.20;;
62709;SDS011;48770;51.624;5.886;2023-05-07T14:09:25;2.15;;;1.08;;
62709;SDS011;48770;51.624;5.886;2023-05-07T14:11:50;1.40;;;0.88;;
62709;SDS011;48770;51.624;5.886;2023-05-07T14:14:17;2.38;;;0.90;;
62709;SDS011;48770;51.624;5.886;2023-05-07T14:16:43;1.70;;;0.75;;
62709;SDS011;48770;51.624;5.886;2023-05-07T14:19:08;4.55;;;1.23;;
62709;SDS011;48770;51.624;5.886;2023-05-07T14:21:33;2.80;;;0.50;;
62709;SDS011;48770;51.624;5.886;2023-05-07T14:23:59;1.17;;;0.63;;
62709;SDS011;48770;51.624;5.886;2023-05-07T14:26:25;1.65;;;0.63;;
62709;SDS011;48770;51.624;5.886;2023-05-07T14:28:52;2.70;;;0.73;;
62709;SDS011;48770;51.624;5.886;2023-05-07T14:31:19;3.42;;;1.20;;
62709;SDS011;48770;51.624;5.886;2023-05-07T14:33:45;2.40;;;0.80;;
62709;SDS011;48770;51.624;5.886;2023-05-07T14:36:10;2.45;;;0.80;;
62709;SDS011;48770;51.624;5.886;2023-05-07T14:38:36;2.50;;;0.77;;
62709;SDS011;48770;51.624;5.886;2023-05-07T14:41:01;2.63;;;0.85;;
62709;SDS011;48770;51.624;5.886;2023-05-07T14:43:26;3.28;;;0.70;;
62709;SDS011;48770;51.624;5.886;2023-05-07T14:45:51;2.13;;;0.73;;
62709;SDS011;48770;51.624;5.886;2023-05-07T14:48:17;2.80;;;1.13;;
62709;SDS011;48770;51.624;5.886;2023-05-07T14:50:46;0.93;;;0.73;;
62709;SDS011;48770;51.624;5.886;2023-05-07T14:53:12;1.40;;;0.80;;
62709;SDS011;48770;51.624;5.886;2023-05-07T14:55:37;3.42;;;0.98;;
62709;SDS011;48770;51.624;5.886;2023-05-07T14:58:03;3.83;;;0.82;;
62709;SDS011;48770;51.624;5.886;2023-05-07T15:00:28;4.70;;;0.95;;
62709;SDS011;48770;51.624;5.886;2023-05-07T15:02:54;3.92;;;1.10;;
62709;SDS011;48770;51.624;5.886;2023-05-07T15:05:26;2.57;;;0.87;;
62709;SDS011;48770;51.624;5.886;2023-05-07T15:07:51;2.03;;;0.80;;